.
WxDataArchive / Data Records for 2012-06-18
2012-06-17 June 2012 2012-06-19

Data Records for Monday, 18 June 2012

Time	Temp	Chill	HIndex	Humid	Dewpt	 Wind 	HiWind	WindDir	Rain 	Barom 
-----	----	-----	------	-----	-----	------	------	-------	-----	----- 
00:00	66.1	66.1	66.1	71	56.4	0	0	---	0.00	29.840 
00:05	66.0	66.0	66.0	71	56.3	0	0	---	0.00	29.840 
00:10	65.8	65.8	65.8	71	56.1	0	0	---	0.00	29.840 
00:15	65.6	65.6	65.6	72	56.3	0	0	---	0.00	29.841 
00:20	65.5	65.5	65.5	72	56.2	0	0	---	0.00	29.841 
00:25	65.3	65.3	65.3	72	56.0	0	0	---	0.00	29.841 
00:30	65.2	65.2	65.2	73	56.3	0	0	---	0.00	29.837 
00:35	65.0	65.0	65.0	73	56.1	0	0	---	0.00	29.837 
00:40	64.8	64.8	64.8	73	55.9	0	0	---	0.00	29.837 
00:45	64.7	64.7	64.7	73	55.8	0	0	---	0.00	29.829 
00:50	64.5	64.5	64.5	73	55.6	0	0	---	0.00	29.829 
00:55	64.5	64.5	64.5	74	56.0	0	0	---	0.00	29.829 
01:00	64.3	64.3	64.3	74	55.8	0	0	---	0.00	29.831 
01:05	64.2	64.2	64.2	75	56.1	0	0	---	0.00	29.831 
01:10	64.0	64.0	64.0	76	56.3	0	0	---	0.00	29.831 
01:15	63.9	63.9	63.9	76	56.2	0	0	---	0.00	29.834 
01:20	63.7	63.7	63.7	77	56.3	0	0	---	0.00	29.834 
01:25	63.5	63.5	63.5	77	56.2	0	0	---	0.00	29.834 
01:30	63.4	63.4	63.4	78	56.4	0	0	---	0.00	29.830 
01:35	63.2	63.2	63.2	79	56.6	0	0	---	0.00	29.830 
01:40	63.2	63.2	63.2	79	56.6	0	0	---	0.00	29.830 
01:45	63.1	63.1	63.1	79	56.5	0	0	---	0.00	29.836 
01:50	63.1	63.1	63.1	80	56.8	0	0	---	0.00	29.836 
01:55	62.9	62.9	62.9	80	56.6	0	0	---	0.00	29.836 
02:00	62.9	62.9	62.9	80	56.6	0	0	---	0.00	29.840 
02:05	62.9	62.9	62.9	81	57.0	0	0	---	0.00	29.840 
02:10	62.7	62.7	62.7	81	56.8	0	0	---	0.00	29.840 
02:15	62.7	62.7	62.7	81	56.8	0	0	---	0.00	29.836 
02:20	62.7	62.7	62.7	81	56.8	0	0	---	0.00	29.836 
02:25	62.7	62.7	62.7	82	57.1	0	0	---	0.00	29.836 
02:30	62.7	62.7	62.7	82	57.1	0	0	---	0.00	29.842 
02:35	62.7	62.7	62.7	82	57.1	0	0	---	0.00	29.842 
02:40	62.9	62.9	62.9	82	57.3	0	0	---	0.00	29.842 
02:45	63.1	63.1	63.1	82	57.5	0	0	---	0.00	29.842 
02:50	63.1	63.1	63.1	82	57.5	0	0	---	0.00	29.842 
02:55	63.2	63.2	63.2	83	57.9	0	0	---	0.00	29.842 
03:00	63.4	63.4	63.4	82	57.8	0	0	---	0.00	29.845 
03:05	63.5	63.5	63.5	82	57.9	0	0	---	0.00	29.845 
03:10	63.5	63.5	63.5	82	57.9	0	0	---	0.00	29.845 
03:15	63.5	63.5	63.5	82	57.9	0	0	---	0.00	29.837 
03:20	63.5	63.5	63.5	82	57.9	0	0	---	0.00	29.837 
03:25	63.4	63.4	63.4	82	57.8	0	0	---	0.00	29.837 
03:30	63.4	63.4	63.4	82	57.8	0	0	---	0.00	29.828 
03:35	63.2	63.2	63.2	82	57.6	0	0	---	0.00	29.828 
03:40	63.2	63.2	63.2	82	57.6	0	0	---	0.00	29.828 
03:45	63.2	63.2	63.2	83	57.9	0	0	---	0.00	29.820 
03:50	63.1	63.1	63.1	83	57.8	0	0	---	0.00	29.820 
03:55	63.1	63.1	63.1	84	58.2	0	0	---	0.00	29.820 
04:00	63.1	63.1	63.1	84	58.2	0	0	---	0.00	29.823 
04:05	62.9	62.9	62.9	85	58.3	0	0	---	0.00	29.823 
04:10	62.9	62.9	62.9	85	58.3	0	0	---	0.00	29.823 
04:15	62.7	62.7	62.7	85	58.1	0	0	---	0.00	29.824 
04:20	62.6	62.6	62.6	85	58.0	0	0	---	0.00	29.824 
04:25	62.6	62.6	62.6	86	58.3	0	0	---	0.00	29.824 
04:30	62.6	62.6	62.6	86	58.3	0	0	---	0.00	29.822 
04:35	62.4	62.4	62.4	87	58.5	0	0	---	0.00	29.822 
04:40	62.4	62.4	62.4	87	58.5	0	0	---	0.00	29.822 
04:45	62.3	62.3	62.3	87	58.4	0	0	---	0.00	29.825 
04:50	62.3	62.3	62.3	87	58.4	0	0	---	0.00	29.825 
04:55	62.1	62.1	62.1	88	58.5	0	0	---	0.00	29.825 
05:00	62.1	62.1	62.1	88	58.5	0	0	---	0.00	29.826 
05:05	62.0	62.0	62.0	88	58.4	0	0	---	0.00	29.826 
05:10	61.8	61.8	61.8	88	58.2	0	0	---	0.00	29.826 
05:15	61.8	61.8	61.8	88	58.2	0	0	---	0.00	29.827 
05:20	61.8	61.8	61.8	88	58.2	0	0	---	0.00	29.827 
05:25	61.6	61.6	61.6	88	58.0	0	0	---	0.00	29.827 
05:30	61.6	61.6	61.6	89	58.3	0	0	---	0.00	29.825 
05:35	61.6	61.6	61.6	89	58.3	0	0	---	0.00	29.825 
05:40	61.6	61.6	61.6	89	58.3	0	0	---	0.00	29.825 
05:45	61.5	61.5	61.5	89	58.2	0	0	---	0.00	29.822 
05:50	61.3	61.3	61.3	89	58.0	0	0	---	0.00	29.822 
05:55	61.3	61.3	61.3	89	58.0	0	0	---	0.00	29.822 
06:00	61.2	61.2	61.2	89	57.9	0	0	---	0.00	29.825 
06:05	61.2	61.2	61.2	90	58.2	0	0	---	0.00	29.825 
06:10	61.3	61.3	61.3	90	58.3	0	0	---	0.00	29.825 
06:15	61.3	61.3	61.3	90	58.3	0	0	---	0.00	29.828 
06:20	61.3	61.3	61.3	90	58.3	0	0	---	0.00	29.828 
06:25	61.5	61.5	61.5	90	58.5	0	0	---	0.00	29.828 
06:30	61.5	61.5	61.5	90	58.5	0	0	---	0.00	29.828 
06:35	61.6	61.6	61.6	91	58.9	0	0	---	0.00	29.828 
06:40	61.8	61.8	61.8	91	59.1	0	0	---	0.00	29.828 
06:45	62.1	62.1	62.1	91	59.4	0	0	---	0.00	29.825 
06:50	62.3	62.3	62.3	91	59.6	0	0	---	0.00	29.825 
06:55	62.6	62.6	62.6	91	59.9	0	0	---	0.00	29.825 
07:00	62.9	62.9	62.9	91	60.2	0	0	---	0.00	29.828 
07:05	63.4	63.4	63.4	91	60.7	0	0	---	0.00	29.828 
07:10	63.9	63.9	63.9	91	61.2	0	0	---	0.00	29.828 
07:15	64.7	64.7	64.7	91	62.0	0	1	292	0.00	29.824 
07:20	65.5	65.5	65.5	89	62.2	0	1	292	0.00	29.824 
07:25	66.3	66.3	66.3	89	63.0	0	0	---	0.00	29.824 
07:30	67.3	67.3	67.3	88	63.6	0	1	292	0.00	29.824 
07:35	68.3	68.3	68.3	88	64.6	0	1	292	0.00	29.824 
07:40	69.1	69.1	69.1	87	65.1	0	1	292	0.00	29.824 
07:45	69.6	69.6	69.6	87	65.6	0	1	292	0.00	29.829 
07:50	70.3	70.3	70.3	86	65.9	0	1	292	0.00	29.829 
07:55	70.9	70.9	70.9	85	66.2	0	1	292	0.00	29.829 
08:00	71.6	71.6	71.6	84	66.5	0	2	292	0.00	29.830 
08:05	72.5	72.5	72.5	82	66.7	0	2	292	0.00	29.830 
08:10	73.2	73.2	73.2	81	67.0	0	2	292	0.00	29.830 
08:15	73.9	73.9	73.9	79	67.0	0	2	292	0.00	29.831 
08:20	74.4	74.4	74.4	78	67.1	0	3	292	0.00	29.831 
08:25	74.9	74.9	74.9	77	67.2	0	3	248	0.00	29.831 
08:30	75.8	75.8	77.0	76	67.7	0	2	248	0.00	29.827 
08:35	76.3	76.3	77.8	74	67.4	1	4	248	0.00	29.827 
08:40	76.5	76.5	78.1	73	67.2	1	3	292	0.00	29.827 
08:45	76.8	76.8	78.4	74	67.9	1	3	248	0.00	29.826 
08:50	77.2	77.2	79.0	73	67.9	1	4	270	0.00	29.826 
08:55	77.7	77.7	79.7	72	67.9	1	3	270	0.00	29.826 
09:00	78.1	78.1	80.2	70	67.5	1	3	270	0.00	29.827 
09:05	78.5	78.5	80.7	70	67.9	1	4	315	0.00	29.827 
09:10	78.6	78.6	80.8	69	67.6	1	3	270	0.00	29.827 
09:15	79.2	79.2	81.5	68	67.7	1	2	270	0.00	29.831 
09:20	79.8	79.8	82.2	66	67.4	1	4	270	0.00	29.831 
09:25	79.9	79.9	82.2	65	67.1	2	6	270	0.00	29.831 
09:30	80.3	80.3	82.7	64	67.0	1	3	270	0.00	29.834 
09:35	80.5	80.5	82.8	63	66.7	2	4	270	0.00	29.834 
09:40	81.1	81.1	83.5	62	66.8	1	3	292	0.00	29.834 
09:45	81.2	81.2	83.5	61	66.4	2	3	315	0.00	29.833 
09:50	81.4	81.4	83.8	61	66.6	1	4	315	0.00	29.833 
09:55	81.6	81.6	83.9	60	66.3	2	5	270	0.00	29.833 
10:00	82.2	82.2	84.5	59	66.4	1	4	270	0.00	29.832 
10:05	82.8	82.8	85.2	58	66.5	2	4	270	0.00	29.832 
10:10	82.8	82.8	85.2	58	66.5	3	4	270	0.00	29.832 
10:15	83.0	83.0	85.5	58	66.7	1	4	270	0.00	29.833 
10:20	83.6	83.6	85.9	56	66.2	2	4	248	0.00	29.833 
10:25	84.0	84.0	86.5	56	66.6	1	3	225	0.00	29.833 
10:30	84.7	84.7	87.0	54	66.2	1	3	202	0.00	29.833 
10:35	85.3	85.3	88.0	54	66.7	1	3	270	0.00	29.833 
10:40	85.7	85.7	88.0	52	66.0	2	5	270	0.00	29.833 
10:45	85.7	85.7	88.0	52	66.0	2	5	270	0.00	29.832 
10:50	85.7	85.7	88.0	52	66.0	2	4	248	0.00	29.832 
10:55	86.3	86.3	88.9	52	66.6	1	5	248	0.00	29.832 
11:00	86.3	86.3	88.6	51	66.0	2	5	248	0.00	29.830 
11:05	86.7	86.7	89.3	51	66.4	1	3	270	0.00	29.830 
11:10	87.4	87.4	90.1	50	66.4	1	3	270	0.00	29.830 
11:15	87.8	87.8	90.4	49	66.2	1	6	315	0.00	29.829 
11:20	87.4	87.4	89.7	49	65.9	2	6	248	0.00	29.829 
11:25	87.2	87.2	89.4	49	65.7	2	3	68	0.00	29.829 
11:30	87.0	87.0	89.4	50	66.1	2	3	270	0.00	29.822 
11:35	87.8	87.8	90.4	49	66.2	2	4	90	0.00	29.822 
11:40	88.0	88.0	90.7	49	66.4	2	4	68	0.00	29.822 
11:45	87.6	87.6	89.7	48	65.4	2	5	248	0.00	29.817 
11:50	87.2	87.2	89.4	49	65.7	2	5	248	0.00	29.817 
11:55	87.0	87.0	89.1	49	65.5	2	6	248	0.00	29.817 
12:00	87.8	87.8	90.7	50	66.8	1	4	248	0.00	29.818 
12:05	88.4	88.4	90.3	46	64.9	2	5	248	0.00	29.818 
12:10	89.0	89.0	91.2	46	65.5	1	4	270	0.00	29.818 
12:15	89.9	89.9	92.3	45	65.7	1	5	270	0.00	29.812 
12:20	89.9	89.9	92.3	45	65.7	2	6	270	0.00	29.812 
12:25	89.5	89.5	91.3	44	64.7	2	6	270	0.00	29.812 
12:30	88.4	88.4	90.0	45	64.3	3	7	270	0.00	29.817 
12:35	88.0	88.0	89.7	46	64.6	2	5	270	0.00	29.817 
12:40	87.8	87.8	89.4	46	64.4	3	5	248	0.00	29.817 
12:45	87.4	87.4	89.1	47	64.7	3	6	270	0.00	29.817 
12:50	87.4	87.4	89.4	48	65.3	2	5	270	0.00	29.817 
12:55	88.0	88.0	89.7	46	64.6	1	3	338	0.00	29.817 
13:00	88.6	88.6	90.6	46	65.1	1	3	225	0.00	29.810 
13:05	88.8	88.8	90.6	45	64.7	2	4	270	0.00	29.810 
13:10	89.5	89.5	91.3	44	64.7	2	5	270	0.00	29.810 
13:15	89.9	89.9	91.6	43	64.4	2	5	248	0.00	29.807 
13:20	89.9	89.9	91.9	44	65.0	2	5	270	0.00	29.807 
13:25	90.1	90.1	91.9	43	64.5	2	5	248	0.00	29.807 
13:30	90.5	90.5	92.2	42	64.2	2	6	225	0.00	29.806 
13:35	90.3	90.3	91.8	42	64.0	3	5	270	0.00	29.806 
13:40	90.1	90.1	91.9	43	64.5	2	5	225	0.00	29.806 
13:45	90.1	90.1	91.5	42	63.9	3	6	270	0.00	29.803 
13:50	90.3	90.3	92.2	43	64.7	2	6	270	0.00	29.803 
13:55	91.0	91.0	92.2	40	63.3	3	9	270	0.00	29.803 
14:00	91.4	91.4	92.8	40	63.6	3	6	270	0.00	29.801 
14:05	91.4	91.4	92.8	40	63.6	2	6	248	0.00	29.801 
14:10	91.2	91.2	92.9	41	64.2	3	5	292	0.00	29.801 
14:15	91.6	91.6	93.1	40	63.8	2	5	270	0.00	29.798 
14:20	91.4	91.4	92.8	40	63.6	2	5	270	0.00	29.798 
14:25	91.0	91.0	92.2	40	63.3	3	6	248	0.00	29.798 
14:30	91.0	91.0	92.2	40	63.3	2	6	248	0.00	29.794 
14:35	91.6	91.6	93.1	40	63.8	3	6	248	0.00	29.794 
14:40	92.3	92.3	93.8	39	63.7	2	5	270	0.00	29.794 
14:45	92.7	92.7	94.1	38	63.3	3	7	270	0.00	29.786 
14:50	93.2	93.2	95.3	39	64.5	2	6	270	0.00	29.786 
14:55	93.2	93.2	94.9	38	63.8	2	7	292	0.00	29.786 
15:00	93.2	93.2	94.1	36	62.2	3	7	270	0.00	29.786 
15:05	92.9	92.9	94.4	38	63.5	3	5	248	0.00	29.786 
15:10	93.2	93.2	94.9	38	63.8	3	6	248	0.00	29.786 
15:15	93.2	93.2	94.9	38	63.8	2	5	248	0.00	29.785 
15:20	93.4	93.4	95.2	38	63.9	2	6	248	0.00	29.785 
15:25	93.4	93.4	95.2	38	63.9	3	7	270	0.00	29.785 
15:30	93.6	93.6	95.5	38	64.1	2	7	270	0.00	29.781 
15:35	93.6	93.6	94.7	36	62.6	3	7	270	0.00	29.781 
15:40	93.4	93.4	94.8	37	63.2	3	6	248	0.00	29.781 
15:45	93.4	93.4	94.4	36	62.4	3	7	270	0.00	29.780 
15:50	93.6	93.6	94.7	36	62.6	1	5	248	0.00	29.780 
15:55	93.4	93.4	94.4	36	62.4	2	7	248	0.00	29.780 
16:00	93.4	93.4	94.8	37	63.2	3	4	248	0.00	29.780 
16:05	92.9	92.9	94.0	37	62.7	3	9	248	0.00	29.780 
16:10	93.2	93.2	94.1	36	62.2	3	7	270	0.00	29.780 
16:15	93.6	93.6	94.7	36	62.6	2	5	270	0.00	29.777 
16:20	93.4	93.4	94.8	37	63.2	2	5	270	0.00	29.777 
16:25	93.4	93.4	94.0	35	61.6	3	7	270	0.00	29.777 
16:30	93.6	93.6	94.3	35	61.8	3	6	270	0.00	29.776 
16:35	93.8	93.8	94.6	35	61.9	3	5	248	0.00	29.776 
16:40	93.2	93.2	94.1	36	62.2	2	7	270	0.00	29.776 
16:45	92.9	92.9	94.0	37	62.7	1	4	292	0.00	29.773 
16:50	93.6	93.6	95.1	37	63.4	1	5	270	0.00	29.773 
16:55	94.3	94.3	95.4	35	62.4	2	5	248	0.00	29.773 
17:00	93.8	93.8	94.6	35	61.9	2	5	248	0.00	29.770 
17:05	93.8	93.8	94.6	35	61.9	3	9	270	0.00	29.770 
17:10	92.9	92.9	93.2	35	61.2	4	10	248	0.00	29.770 
17:15	92.5	92.5	93.0	36	61.6	3	9	248	0.00	29.776 
17:20	92.3	92.3	93.1	37	62.2	2	4	270	0.00	29.776 
17:25	92.9	92.9	94.0	37	62.7	2	4	270	0.00	29.776 
17:30	92.7	92.7	93.3	36	61.8	2	6	248	0.00	29.773 
17:35	92.5	92.5	93.0	36	61.6	2	6	270	0.00	29.773 
17:40	92.3	92.3	92.7	36	61.4	3	6	270	0.00	29.773 
17:45	92.1	92.1	92.4	36	61.3	3	6	248	0.00	29.781 
17:50	92.1	92.1	92.0	35	60.5	3	6	270	0.00	29.781 
17:55	92.1	92.1	92.4	36	61.3	2	5	248	0.00	29.781 
18:00	92.1	92.1	92.4	36	61.3	2	6	248	0.00	29.779 
18:05	91.4	91.4	91.7	37	61.4	2	6	248	0.00	29.779 
18:10	91.2	91.2	91.4	37	61.2	2	7	248	0.00	29.779 
18:15	91.4	91.4	91.7	37	61.4	2	6	248	0.00	29.771 
18:20	91.6	91.6	91.3	35	60.0	2	6	248	0.00	29.771 
18:25	91.8	91.8	91.6	35	60.2	2	8	270	0.00	29.771 
18:30	91.6	91.6	91.3	35	60.0	2	6	270	0.00	29.767 
18:35	91.4	91.4	91.4	36	60.6	3	6	270	0.00	29.767 
18:40	91.2	91.2	90.5	34	58.9	2	6	248	0.00	29.767 
18:45	91.0	91.0	90.2	34	58.7	3	7	270	0.00	29.770 
18:50	91.0	91.0	90.2	34	58.7	3	6	248	0.00	29.770 
18:55	91.0	91.0	90.5	35	59.5	2	5	248	0.00	29.770 
19:00	91.0	91.0	90.8	36	60.3	2	7	270	0.00	29.765 
19:05	91.0	91.0	90.5	35	59.5	2	7	270	0.00	29.765 
19:10	90.7	90.7	90.1	35	59.2	3	7	248	0.00	29.765 
19:15	90.3	90.3	89.3	34	58.1	3	9	248	0.00	29.765 
19:20	90.1	90.1	89.3	35	58.7	2	5	248	0.00	29.765 
19:25	90.1	90.1	89.3	35	58.7	2	5	225	0.00	29.765 
19:30	90.3	90.3	89.6	35	58.9	1	4	225	0.00	29.766 
19:35	90.3	90.3	89.3	34	58.1	3	9	270	0.00	29.766 
19:40	90.1	90.1	89.3	35	58.7	3	11	270	0.00	29.766 
19:45	89.9	89.9	88.8	34	57.7	2	4	292	0.00	29.766 
19:50	89.9	89.9	88.5	33	56.9	2	7	248	0.00	29.766 
19:55	89.9	89.9	88.5	33	56.9	2	5	248	0.00	29.766 
20:00	89.7	89.7	88.3	33	56.7	1	6	225	0.00	29.770 
20:05	89.5	89.5	88.3	34	57.4	2	6	248	0.00	29.770 
20:10	89.3	89.3	88.0	34	57.2	1	3	248	0.00	29.770 
20:15	89.0	89.0	87.7	34	56.9	2	6	248	0.00	29.763 
20:20	89.0	89.0	87.7	34	56.9	2	4	270	0.00	29.763 
20:25	88.8	88.8	87.6	35	57.6	2	10	248	0.00	29.763 
20:30	88.6	88.6	87.4	35	57.4	2	5	248	0.00	29.776 
20:35	88.2	88.2	86.9	35	57.0	1	4	248	0.00	29.776 
20:40	87.8	87.8	86.5	35	56.7	1	3	270	0.00	29.776 
20:45	87.6	87.6	86.4	36	57.3	1	4	270	0.00	29.773 
20:50	87.4	87.4	86.4	37	57.9	1	4	45	0.00	29.773 
20:55	87.0	87.0	86.2	38	58.3	2	6	292	0.00	29.773 
21:00	87.0	87.0	86.2	38	58.3	1	6	248	0.00	29.788 
21:05	86.7	86.7	85.8	38	58.0	1	4	270	0.00	29.788 
21:10	86.5	86.5	85.6	38	57.8	2	6	248	0.00	29.788 
21:15	86.3	86.3	85.6	39	58.4	0	2	292	0.00	29.792 
21:20	85.9	85.9	85.1	39	58.0	1	7	270	0.00	29.792 
21:25	85.7	85.7	84.9	39	57.9	1	3	248	0.00	29.792 
21:30	85.5	85.5	84.9	40	58.4	1	4	248	0.00	29.797 
21:35	85.5	85.5	84.9	40	58.4	1	3	248	0.00	29.797 
21:40	85.3	85.3	84.8	41	58.9	0	2	248	0.00	29.797 
21:45	85.1	85.1	84.6	41	58.7	1	4	248	0.00	29.809 
21:50	84.7	84.7	84.2	41	58.4	0	2	315	0.00	29.809 
21:55	84.5	84.5	84.1	42	58.9	0	2	315	0.00	29.809 
22:00	84.3	84.3	84.1	43	59.3	1	3	315	0.00	29.815 
22:05	84.1	84.1	83.9	43	59.2	0	2	315	0.00	29.815 
22:10	84.1	84.1	83.9	43	59.2	0	2	315	0.00	29.815 
22:15	84.0	84.0	84.0	44	59.7	0	2	315	0.00	29.824 
22:20	83.8	83.8	83.7	44	59.5	0	2	315	0.00	29.824 
22:25	83.6	83.6	83.5	44	59.3	1	3	292	0.00	29.824 
22:30	83.4	83.4	83.5	45	59.8	1	2	292	0.00	29.833 
22:35	83.4	83.4	83.5	45	59.8	0	1	292	0.00	29.833 
22:40	83.2	83.2	83.4	46	60.2	0	2	292	0.00	29.833 
22:45	83.0	83.0	83.2	46	60.1	1	3	292	0.00	29.838 
22:50	82.8	82.8	83.0	46	59.9	1	2	292	0.00	29.838 
22:55	82.8	82.8	83.0	46	59.9	1	4	292	0.00	29.838 
23:00	82.6	82.6	82.8	46	59.7	1	3	225	0.00	29.842 
23:05	82.4	82.4	82.7	47	60.1	1	2	225	0.00	29.842 
23:10	82.4	82.4	82.7	47	60.1	0	4	225	0.00	29.842 
23:15	82.2	82.2	82.7	48	60.5	1	3	225	0.00	29.844 
23:20	82.0	82.0	82.5	48	60.3	0	2	225	0.00	29.844 
23:25	81.8	81.8	82.3	48	60.2	0	4	225	0.00	29.844 
23:30	81.6	81.6	82.2	49	60.6	1	3	225	0.00	29.857 
23:35	81.6	81.6	82.2	49	60.6	0	2	225	0.00	29.857 
23:40	81.4	81.4	82.0	49	60.4	0	3	225	0.00	29.857 
23:45	81.2	81.2	81.9	50	60.8	0	1	225	0.00	29.868 
23:50	81.2	81.2	81.9	50	60.8	1	3	225	0.00	29.868 
23:55	81.1	81.1	81.8	50	60.7	0	5	225	0.00	29.868 

CoCoRaHS
IN-AL-39
A2 Web Hosting
Creative Commons License
GoDaddy
search engine by freefind advanced

loaded 2018-11-17 12:17:02 • last modified 2010-11-18 10:43:29
Privacy PolicyDisclaimer
• wx.awcolley.com is powered by PmWiki v.2002016 •
• all content (unless otherwise noted) © 2018 A W Colley